createdAt,value
2019-06-26T00:03:26.528Z,12.37
2019-06-26T00:08:29.962Z,11.90
2019-06-26T00:13:33.385Z,11.65
2019-06-26T00:18:36.816Z,11.88
2019-06-26T00:23:40.245Z,12.70
2019-06-26T00:28:43.666Z,12.95
2019-06-26T00:33:47.101Z,14.13
2019-06-26T00:38:50.560Z,13.90
2019-06-26T00:43:54.029Z,14.37
2019-06-26T00:48:57.473Z,14.30
2019-06-26T00:54:00.881Z,15.93
2019-06-26T00:59:04.381Z,14.93
2019-06-26T01:04:15.496Z,15.58
2019-06-26T01:09:18.928Z,15.40
2019-06-26T01:14:22.348Z,16.63
2019-06-26T01:19:25.781Z,15.77
2019-06-26T01:24:29.569Z,17.30
2019-06-26T01:29:33.008Z,18.00
2019-06-26T01:34:36.419Z,18.15
2019-06-26T01:39:39.840Z,19.73
2019-06-26T01:44:43.265Z,19.10
2019-06-26T01:49:46.672Z,20.33
2019-06-26T01:54:50.100Z,22.93
2019-06-26T01:59:53.508Z,22.50
2019-06-26T02:04:56.939Z,22.30
2019-06-26T02:10:00.348Z,25.17
2019-06-26T02:15:06.184Z,23.83
2019-06-26T02:20:09.741Z,24.13
2019-06-26T02:25:13.236Z,24.98
2019-06-26T02:30:16.815Z,26.95
2019-06-26T02:35:20.242Z,27.35
2019-06-26T02:40:23.793Z,28.67
2019-06-26T02:45:27.223Z,28.50
2019-06-26T02:50:30.631Z,30.77
2019-06-26T02:55:34.194Z,31.35
2019-06-26T03:00:37.613Z,31.30
2019-06-26T03:05:41.035Z,33.65
2019-06-26T03:10:44.458Z,33.83
2019-06-26T03:15:50.450Z,36.00
2019-06-26T03:20:57.778Z,36.17
2019-06-26T03:26:01.187Z,35.47
2019-06-26T03:31:05.161Z,35.17
2019-06-26T03:36:08.806Z,37.87
2019-06-26T03:41:12.231Z,37.20
2019-06-26T03:46:15.887Z,36.88
2019-06-26T03:51:19.303Z,40.10
2019-06-26T03:56:22.745Z,44.37
2019-06-26T04:01:26.222Z,51.40
2019-06-26T04:06:29.651Z,41.73
2019-06-26T04:11:33.063Z,41.20
2019-06-26T04:16:36.483Z,38.28
2019-06-26T04:21:39.908Z,38.92
2019-06-26T04:26:43.321Z,39.93
2019-06-26T04:31:46.740Z,42.43
2019-06-26T04:36:50.169Z,44.17
2019-06-26T04:41:53.588Z,42.57
2019-06-26T04:46:56.999Z,46.53
2019-06-26T04:52:00.427Z,51.03
2019-06-26T04:57:04.317Z,49.40
2019-06-26T05:02:07.744Z,48.68
2019-06-26T05:07:11.147Z,48.30
2019-06-26T05:12:14.632Z,52.03
2019-06-26T05:17:18.061Z,51.90
2019-06-26T05:22:21.539Z,53.23
2019-06-26T05:27:24.966Z,54.93
2019-06-26T05:32:28.388Z,54.53
2019-06-26T05:37:31.803Z,54.88
2019-06-26T05:42:35.225Z,54.07
2019-06-26T05:47:38.955Z,54.08
2019-06-26T05:52:43.155Z,56.92
2019-06-26T05:57:48.551Z,54.70
2019-06-26T06:02:54.025Z,56.85
2019-06-26T06:07:57.509Z,57.45
2019-06-26T06:13:00.952Z,58.83
2019-06-26T06:18:04.363Z,59.15
2019-06-26T06:23:07.801Z,59.95
2019-06-26T06:28:11.218Z,58.90
2019-06-26T06:33:14.631Z,62.17
2019-06-26T06:38:18.048Z,60.70
2019-06-26T06:43:21.708Z,64.07
2019-06-26T06:48:25.177Z,63.65
2019-06-26T06:53:28.679Z,67.27
2019-06-26T06:58:32.112Z,69.05
2019-06-26T07:03:35.595Z,70.37
2019-06-26T07:08:39.028Z,73.25
2019-06-26T07:13:42.453Z,77.82
2019-06-26T07:18:45.952Z,74.50
2019-06-26T07:23:49.362Z,74.40
2019-06-26T07:28:52.823Z,79.15
2019-06-26T07:33:56.284Z,77.50
2019-06-26T07:38:59.744Z,75.40
2019-06-26T07:44:03.210Z,81.50
2019-06-26T07:49:06.663Z,83.03
2019-06-26T07:54:10.078Z,80.87
2019-06-26T07:59:13.514Z,83.23
2019-06-26T08:04:16.932Z,76.20
2019-06-26T08:09:20.428Z,71.37
2019-06-26T08:14:23.856Z,69.77
2019-06-26T08:19:27.289Z,77.32
2019-06-26T08:24:30.707Z,81.82
2019-06-26T08:29:34.324Z,80.47
2019-06-26T08:34:37.743Z,79.42
2019-06-26T08:39:41.188Z,79.65
2019-06-26T08:44:44.629Z,83.50
2019-06-26T08:49:48.067Z,79.55
2019-06-26T08:54:51.506Z,78.40
2019-06-26T08:59:55.080Z,80.72
2019-06-26T09:04:58.511Z,75.10
2019-06-26T09:10:02.078Z,68.17
2019-06-26T09:15:09.527Z,69.22
2019-06-26T09:20:15.659Z,66.65
2019-06-26T09:25:22.213Z,63.63
2019-06-26T09:30:24.604Z,55.43
2019-06-26T09:35:28.068Z,57.73
2019-06-26T09:40:32.236Z,51.83
2019-06-26T09:45:35.957Z,56.90
2019-06-26T09:50:39.371Z,48.90
2019-06-26T09:55:42.803Z,45.50
2019-06-26T10:00:46.216Z,38.55
2019-06-26T10:05:49.640Z,33.87
2019-06-26T10:10:53.237Z,32.20
2019-06-26T10:16:00.324Z,34.83
2019-06-26T10:21:01.916Z,28.98
2019-06-26T10:26:06.518Z,21.60
2019-06-26T10:31:10.296Z,20.33
2019-06-26T10:36:13.872Z,17.20
2019-06-26T10:41:17.304Z,15.23
2019-06-26T10:46:20.735Z,16.23
2019-06-26T10:51:24.151Z,12.30
2019-06-26T10:56:28.812Z,10.80
2019-06-26T11:01:32.376Z,10.60
2019-06-26T11:06:37.163Z,10.70
2019-06-26T11:11:40.867Z,8.83
2019-06-26T11:16:44.280Z,9.83
2019-06-26T11:21:47.692Z,8.97
2019-06-26T11:26:51.118Z,9.65
2019-06-26T11:31:54.804Z,9.83
2019-06-26T11:37:03.631Z,8.45
2019-06-26T11:42:03.436Z,10.48
2019-06-26T11:47:06.855Z,11.63
2019-06-26T11:52:10.545Z,7.90
2019-06-26T11:57:13.944Z,11.05
2019-06-26T12:02:17.461Z,9.53
2019-06-26T12:07:20.975Z,9.78
2019-06-26T12:12:24.389Z,11.43
2019-06-26T12:17:27.807Z,11.60
2019-06-26T12:22:31.237Z,8.45
2019-06-26T12:27:34.743Z,11.10
2019-06-26T12:32:42.163Z,11.25
2019-06-26T12:37:43.321Z,9.63
2019-06-26T12:42:47.026Z,13.22
2019-06-26T12:47:50.434Z,9.48
2019-06-26T12:52:53.851Z,8.60
2019-06-26T12:58:11.897Z,8.93
2019-06-26T13:03:02.455Z,10.35
2019-06-26T13:08:05.935Z,8.90
2019-06-26T13:13:09.349Z,10.43
2019-06-26T13:18:12.785Z,11.10
2019-06-26T13:23:16.707Z,9.25
2019-06-26T13:28:20.144Z,12.33
2019-06-26T13:33:23.561Z,12.00
2019-06-26T13:38:27.385Z,10.23
2019-06-26T13:43:30.855Z,10.20
2019-06-26T13:48:34.275Z,10.53
2019-06-26T13:53:37.688Z,8.73
2019-06-26T13:58:41.100Z,8.63
2019-06-26T14:03:44.595Z,10.88
2019-06-26T14:08:48.016Z,8.15
2019-06-26T14:13:51.439Z,7.65
2019-06-26T14:18:54.843Z,8.08
2019-06-26T14:23:58.252Z,8.27
2019-06-26T14:29:01.666Z,8.93
2019-06-26T14:34:05.336Z,7.43
2019-06-26T14:39:09.552Z,8.20
2019-06-26T14:44:13.124Z,6.20
2019-06-26T14:49:16.629Z,6.70
2019-06-26T14:54:20.064Z,8.10
2019-06-26T14:59:25.017Z,7.70
2019-06-26T15:04:28.479Z,8.85
2019-06-26T15:09:31.890Z,8.33
2019-06-26T15:14:35.355Z,9.88
2019-06-26T15:19:38.897Z,8.73
2019-06-26T15:24:42.337Z,8.73
2019-06-26T15:29:46.375Z,9.70
2019-06-26T15:39:22.416Z,7.40
2019-06-26T15:44:26.134Z,6.87
2019-06-26T15:49:29.532Z,6.67
2019-06-26T15:54:33.015Z,5.97
2019-06-26T15:59:36.423Z,7.22
2019-06-26T16:04:39.888Z,7.60
2019-06-26T16:09:43.312Z,6.60
2019-06-26T16:14:46.799Z,6.20
2019-06-26T16:19:50.272Z,5.25
2019-06-26T16:24:53.987Z,6.50
2019-06-26T16:29:57.515Z,4.05
2019-06-26T16:35:01.019Z,6.60
2019-06-26T16:40:06.389Z,5.08
2019-06-26T16:45:10.158Z,5.53
2019-06-26T16:50:14.165Z,6.70
2019-06-26T16:55:18.371Z,7.37
2019-06-26T17:00:22.672Z,5.92
2019-06-26T17:05:27.079Z,6.30
2019-06-26T17:10:32.366Z,7.47
2019-06-26T17:15:35.809Z,7.30
2019-06-26T17:20:40.112Z,5.15
2019-06-26T17:25:43.540Z,8.00
2019-06-26T17:30:46.954Z,6.37
2019-06-26T17:35:50.674Z,8.93
2019-06-26T17:40:54.148Z,9.03
2019-06-26T17:45:57.556Z,6.10
2019-06-26T17:51:01.287Z,9.25
2019-06-26T17:56:04.995Z,6.08
2019-06-26T18:01:08.400Z,9.08
2019-06-26T18:06:11.811Z,6.22
2019-06-26T18:11:15.225Z,7.40
2019-06-26T18:16:18.713Z,8.68
2019-06-26T18:21:22.138Z,6.85
2019-06-26T18:26:25.545Z,7.62
2019-06-26T18:31:30.632Z,6.07
2019-06-26T18:36:34.100Z,5.78
2019-06-26T18:41:37.608Z,7.20
2019-06-26T18:46:41.035Z,5.70
2019-06-26T18:51:44.459Z,5.15
2019-06-26T18:56:47.867Z,5.70
2019-06-26T19:01:51.282Z,6.53
2019-06-26T19:06:54.717Z,5.85
2019-06-26T19:11:58.127Z,5.55
2019-06-26T19:17:01.771Z,5.97
2019-06-26T19:22:05.298Z,7.15
2019-06-26T19:27:08.869Z,6.07
2019-06-26T19:32:12.637Z,6.58
2019-06-26T19:37:16.105Z,7.42
2019-06-26T19:42:19.531Z,9.78
2019-06-26T19:47:23.079Z,4.93
2019-06-26T19:52:26.505Z,7.85
2019-06-26T19:57:29.916Z,4.90
2019-06-26T20:02:33.343Z,5.95
2019-06-26T20:07:36.755Z,8.07
2019-06-26T20:12:40.167Z,8.53
2019-06-26T20:17:43.844Z,9.85
2019-06-26T20:22:47.287Z,6.72
2019-06-26T20:27:56.665Z,7.37
2019-06-26T20:32:55.960Z,8.23
2019-06-26T20:37:59.372Z,12.97
2019-06-26T20:43:03.129Z,6.83
2019-06-26T20:48:06.540Z,9.70
2019-06-26T20:53:09.952Z,7.85
2019-06-26T20:58:13.375Z,7.53
2019-06-26T21:03:16.787Z,5.97
2019-06-26T21:08:20.208Z,8.43
2019-06-26T21:13:23.800Z,7.30
2019-06-26T21:19:55.287Z,5.67
2019-06-26T21:24:58.693Z,7.33
2019-06-26T21:30:02.189Z,6.20
2019-06-26T21:35:06.502Z,8.25
2019-06-26T21:40:10.534Z,8.10
2019-06-26T21:45:14.815Z,9.40
2019-06-26T21:50:18.231Z,8.45
2019-06-26T21:55:33.887Z,9.87
2019-06-26T22:00:28.602Z,7.47
2019-06-26T22:05:32.087Z,8.10
2019-06-26T22:10:35.665Z,9.63
2019-06-26T22:15:39.084Z,10.05
2019-06-26T22:20:42.630Z,9.73
2019-06-26T22:25:50.905Z,10.57
2019-06-26T22:30:51.212Z,9.18
2019-06-26T22:35:54.618Z,10.60
2019-06-26T22:40:58.228Z,11.03
2019-06-26T22:46:01.655Z,12.23
2019-06-26T22:51:05.164Z,10.85
2019-06-26T22:56:08.600Z,9.48
2019-06-26T23:01:12.080Z,10.43
2019-06-26T23:06:15.500Z,12.23
2019-06-26T23:11:19.021Z,9.70
2019-06-26T23:16:22.469Z,10.72
2019-06-26T23:21:25.904Z,10.48
2019-06-26T23:26:29.338Z,12.95
2019-06-26T23:31:32.757Z,11.15
2019-06-26T23:36:36.188Z,9.28
2019-06-26T23:41:39.608Z,11.45
2019-06-26T23:46:43.030Z,12.27
2019-06-26T23:51:46.457Z,10.63
2019-06-26T23:56:49.957Z,8.50
